Time;durP1;ratioP1;P1;durP2;ratioP2;P2;SDS_P1;SDS_P2;PMS_P1;PMS_P2;Temp;Humidity;BMP_temperature;BMP_pressure;BME280_temperature;BME280_humidity;BME280_pressure;Samples;Min_cycle;Max_cycle;Signal;HPM_P1;HPM_P2
2021/06/07 00:03:21;;;;;;;7.50;6.68;;;;;;;11.64;66.20;100208.42;262487;1107;101434;-68
2021/06/07 00:08:26;;;;;;;11.48;7.48;;;;;;;11.57;66.58;100202.40;262633;1107;102920;-69
2021/06/07 00:13:31;;;;;;;11.48;8.55;;;;;;;11.65;66.95;100196.70;262330;1107;101638;-69
2021/06/07 00:18:35;;;;;;;11.48;7.88;;;;;;;11.72;66.77;100192.07;262302;1101;103043;-70
2021/06/07 00:23:40;;;;;;;9.25;7.63;;;;;;;11.69;66.73;100203.21;262166;1107;102960;-70
2021/06/07 00:28:46;;;;;;;15.63;7.10;;;;;;;11.60;67.23;100198.46;261085;1107;102965;-71
2021/06/07 00:33:52;;;;;;;16.18;7.15;;;;;;;11.47;67.07;100199.47;261225;1107;102949;-72
2021/06/07 00:38:58;;;;;;;14.08;7.70;;;;;;;11.40;67.17;100206.76;261293;1107;102984;-72
2021/06/07 00:44:09;;;;;;;12.75;9.65;;;;;;;11.44;67.93;100194.59;261273;1107;102968;-72
2021/06/07 00:49:15;;;;;;;9.75;8.83;;;;;;;11.51;68.34;100202.50;261046;1107;103171;-71
2021/06/07 00:54:20;;;;;;;10.88;9.20;;;;;;;11.42;67.60;100200.15;261076;1107;102968;-72
2021/06/07 00:59:25;;;;;;;9.60;8.40;;;;;;;11.32;68.03;100202.55;260360;1107;103133;-71
2021/06/07 01:04:30;;;;;;;11.13;6.78;;;;;;;11.19;68.01;100193.94;260896;1106;102990;-72
2021/06/07 01:09:35;;;;;;;11.25;8.98;;;;;;;11.13;67.95;100203.66;260593;1107;103038;-71
2021/06/07 01:14:40;;;;;;;10.05;9.05;;;;;;;11.01;67.63;100200.94;260767;1106;103040;-71
2021/06/07 01:19:45;;;;;;;13.20;9.80;;;;;;;10.95;68.22;100196.53;260844;1107;103059;-71
2021/06/07 01:24:50;;;;;;;13.50;9.63;;;;;;;10.94;69.03;100192.23;261118;1107;103081;-70
2021/06/07 01:29:55;;;;;;;14.43;9.98;;;;;;;11.03;68.79;100188.19;261428;1103;103113;-70
2021/06/07 01:35:00;;;;;;;14.38;9.85;;;;;;;11.07;69.14;100194.70;261116;1107;103051;-71
2021/06/07 01:40:10;;;;;;;14.95;10.68;;;;;;;11.02;69.25;100191.90;260667;1107;103126;-71
2021/06/07 01:45:18;;;;;;;12.18;9.33;;;;;;;10.98;69.38;100193.42;260753;1107;103384;-71
2021/06/07 01:50:24;;;;;;;11.50;9.33;;;;;;;10.91;68.77;100192.69;260745;1107;103090;-71
2021/06/07 01:55:37;;;;;;;16.60;10.00;;;;;;;10.86;69.31;100187.20;261410;1107;103058;-71
2021/06/07 02:00:43;;;;;;;13.33;7.83;;;;;;;10.82;69.27;100191.36;262538;1107;101835;-71
2021/06/07 02:05:59;;;;;;;11.03;8.13;;;;;;;10.72;69.04;100191.88;260727;1102;103091;-71
2021/06/07 02:11:26;;;;;;;13.53;6.75;;;;;;;10.61;69.46;100189.17;261976;1107;102965;-71
2021/06/07 02:16:35;;;;;;;15.88;10.58;;;;;;;10.61;69.42;100183.84;262629;1107;102118;-71
2021/06/07 02:21:41;;;;;;;14.25;10.95;;;;;;;10.71;69.91;100187.59;262528;1107;102746;-71
2021/06/07 02:26:46;;;;;;;16.85;11.08;;;;;;;10.73;70.19;100188.18;261933;1107;102944;-71
2021/06/07 02:31:52;;;;;;;10.05;9.03;;;;;;;10.73;70.10;100187.37;260665;1107;103033;-71
2021/06/07 02:36:57;;;;;;;13.65;11.08;;;;;;;10.72;69.72;100186.55;261556;1107;103024;-71
2021/06/07 02:42:02;;;;;;;21.15;11.40;;;;;;;10.64;69.82;100181.55;260032;1107;103030;-70
2021/06/07 02:47:06;;;;;;;14.40;9.50;;;;;;;10.58;70.40;100184.29;260980;1107;102989;-70
2021/06/07 02:52:13;;;;;;;10.30;9.15;;;;;;;10.52;70.29;100185.17;260046;1107;103079;-70
2021/06/07 02:57:19;;;;;;;13.33;9.80;;;;;;;10.49;70.02;100185.63;260351;1103;103094;-68
2021/06/07 03:02:24;;;;;;;15.15;10.00;;;;;;;10.58;70.90;100186.95;260507;1107;103048;-69
2021/06/07 03:07:28;;;;;;;14.50;10.73;;;;;;;10.66;70.44;100183.99;260796;1107;103119;-69
2021/06/07 03:12:35;;;;;;;11.15;9.78;;;;;;;10.69;70.57;100188.88;261161;1107;103037;-69
2021/06/07 03:17:41;;;;;;;15.78;10.50;;;;;;;10.81;70.98;100189.73;260679;1107;103087;-69
2021/06/07 03:22:46;;;;;;;24.58;11.48;;;;;;;11.01;71.46;100194.80;260195;1107;103037;-68
2021/06/07 03:27:51;;;;;;;16.33;10.63;;;;;;;11.17;71.26;100193.36;260304;1107;103073;-68
2021/06/07 03:32:55;;;;;;;15.87;7.73;;;;;;;11.19;70.57;100199.28;260353;1107;102998;-69
2021/06/07 03:38:00;;;;;;;14.33;9.23;;;;;;;11.21;70.71;100203.35;260013;1107;103066;-68
2021/06/07 03:43:06;;;;;;;10.25;8.58;;;;;;;11.77;70.26;100197.57;260905;1103;102955;-69
2021/06/07 03:48:12;;;;;;;17.03;10.95;;;;;;;11.88;70.53;100195.14;260119;1101;103072;-69
2021/06/07 03:53:17;;;;;;;14.23;11.68;;;;;;;12.19;70.48;100200.14;261484;1107;102939;-69
2021/06/07 03:58:23;;;;;;;14.50;11.27;;;;;;;12.45;70.30;100204.98;261262;1107;103050;-69
2021/06/07 04:03:27;;;;;;;14.55;10.28;;;;;;;12.58;70.53;100200.40;262632;1107;101033;-71
2021/06/07 04:08:31;;;;;;;11.48;9.03;;;;;;;12.73;70.46;100204.21;262288;1107;102946;-70
2021/06/07 04:13:36;;;;;;;11.85;9.45;;;;;;;13.14;69.91;100205.81;262309;1107;101406;-71
2021/06/07 04:18:39;;;;;;;12.08;10.88;;;;;;;14.02;69.42;100214.25;262676;1107;102920;-73
2021/06/07 04:23:44;;;;;;;14.23;10.40;;;;;;;15.73;67.75;100206.58;262598;1107;101485;-72
2021/06/07 04:28:48;;;;;;;12.25;9.68;;;;;;;18.02;65.27;100210.08;262206;1107;102962;-70
2021/06/07 04:33:52;;;;;;;9.48;8.68;;;;;;;19.38;62.72;100214.09;261398;1107;102939;-68
2021/06/07 04:38:57;;;;;;;13.48;8.53;;;;;;;23.16;57.92;100218.15;261816;1107;103059;-68
2021/06/07 04:44:03;;;;;;;11.13;9.28;;;;;;;24.50;55.34;100226.23;261335;1107;102978;-68
2021/06/07 04:49:07;;;;;;;10.75;9.70;;;;;;;24.20;53.99;100224.31;261359;1107;103014;-68
2021/06/07 04:54:11;;;;;;;10.95;9.80;;;;;;;23.13;54.00;100232.36;261647;1107;103104;-70
2021/06/07 04:59:14;;;;;;;12.05;10.18;;;;;;;23.70;52.31;100229.16;261166;1107;103067;-69
2021/06/07 05:04:21;;;;;;;8.68;7.98;;;;;;;25.38;50.12;100228.00;261674;1107;102940;-69
2021/06/07 05:09:25;;;;;;;8.47;7.20;;;;;;;26.98;48.85;100224.66;260912;1107;103236;-69
2021/06/07 05:14:30;;;;;;;7.80;7.00;;;;;;;30.89;43.89;100231.25;260350;1107;102964;-67
2021/06/07 05:19:35;;;;;;;8.50;6.23;;;;;;;33.92;40.22;100240.70;260218;1106;103036;-70
2021/06/07 05:24:40;;;;;;;7.70;4.13;;;;;;;36.09;36.82;100244.74;260612;1107;103018;-70
2021/06/07 05:29:45;;;;;;;8.20;4.35;;;;;;;37.73;34.56;100251.61;260267;1107;102973;-72
2021/06/07 05:34:49;;;;;;;4.85;4.30;;;;;;;39.16;32.32;100244.83;260113;1107;103053;-72
2021/06/07 05:39:55;;;;;;;11.38;3.35;;;;;;;40.38;29.70;100248.30;260173;1103;103059;-70
2021/06/07 05:45:01;;;;;;;3.43;2.98;;;;;;;41.37;27.64;100246.45;261157;1107;103037;-71
2021/06/07 05:50:09;;;;;;;2.58;2.38;;;;;;;42.08;26.15;100246.89;261202;1107;103076;-68
2021/06/07 05:55:28;;;;;;;5.85;3.60;;;;;;;42.76;24.71;100251.56;261666;1107;103149;-70
2021/06/07 06:00:37;;;;;;;7.23;2.45;;;;;;;43.52;23.15;100248.20;261009;1107;102966;-68
2021/06/07 06:05:43;;;;;;;2.60;2.40;;;;;;;43.98;22.27;100246.78;261233;1107;102965;-69
2021/06/07 06:10:48;;;;;;;2.20;2.10;;;;;;;44.14;20.68;100246.66;261633;1107;103234;-70
2021/06/07 06:16:13;;;;;;;4.13;2.75;;;;;;;44.04;20.40;100247.79;262339;1107;101604;-69
2021/06/07 06:21:19;;;;;;;5.03;2.20;;;;;;;44.29;19.39;100247.77;262405;1107;101470;-66
2021/06/07 06:26:24;;;;;;;3.80;2.33;;;;;;;44.18;18.95;100252.95;262599;1107;101430;-66
2021/06/07 06:31:27;;;;;;;2.55;1.83;;;;;;;44.29;17.89;100249.79;262550;1107;101313;-69
2021/06/07 06:36:34;;;;;;;3.85;1.90;;;;;;;44.11;18.03;100250.38;262312;1107;102972;-66
2021/06/07 06:41:39;;;;;;;5.13;1.48;;;;;;;43.76;17.63;100260.70;261936;1103;101959;-67
2021/06/07 06:46:44;;;;;;;4.43;1.88;;;;;;;43.68;17.22;100252.97;261677;1107;103845;-67
2021/06/07 06:51:49;;;;;;;5.95;2.25;;;;;;;43.51;16.71;100258.64;261925;1107;102819;-69
2021/06/07 06:56:54;;;;;;;1.30;1.20;;;;;;;42.82;16.85;100260.22;260542;1107;102968;-72
2021/06/07 07:01:59;;;;;;;5.18;1.85;;;;;;;42.42;16.71;100251.27;261844;1107;102940;-71
2021/06/07 07:07:05;;;;;;;1.93;1.68;;;;;;;42.22;17.37;100260.52;259973;1107;102989;-68
2021/06/07 07:12:12;;;;;;;4.03;1.73;;;;;;;41.97;18.02;100257.52;259778;1107;103071;-69
2021/06/07 07:17:16;;;;;;;12.48;1.93;;;;;;;41.61;17.18;100258.34;260370;1107;103053;-70
2021/06/07 07:22:21;;;;;;;3.30;1.95;;;;;;;40.44;18.60;100251.41;260072;1107;103011;-71
2021/06/07 07:27:27;;;;;;;4.78;1.75;;;;;;;39.63;18.51;100255.02;260230;1102;108447;-72
2021/06/07 07:32:31;;;;;;;1.93;1.83;;;;;;;38.67;20.04;100258.88;261135;1107;103136;-73
2021/06/07 07:37:37;;;;;;;1.48;1.48;;;;;;;37.82;20.42;100262.30;260486;1102;103056;-73
2021/06/07 07:42:42;;;;;;;3.00;2.48;;;;;;;37.04;21.71;100249.47;260895;1107;102959;-71
2021/06/07 07:47:47;;;;;;;7.28;2.53;;;;;;;36.25;22.08;100250.75;261010;1102;103120;-72
2021/06/07 07:52:51;;;;;;;2.95;2.08;;;;;;;35.44;21.17;100248.55;261615;1107;102945;-72
2021/06/07 07:57:56;;;;;;;2.55;1.68;;;;;;;34.91;22.39;100243.50;260420;1107;103033;-71
2021/06/07 08:03:00;;;;;;;4.48;2.30;;;;;;;34.02;23.29;100242.76;261620;1107;102955;-73
2021/06/07 08:08:05;;;;;;;1.55;1.55;;;;;;;33.56;24.05;100253.31;261093;1107;103267;-71
2021/06/07 08:13:10;;;;;;;1.95;1.85;;;;;;;33.13;24.05;100247.21;261312;1107;103040;-70
2021/06/07 08:18:15;;;;;;;3.08;2.13;;;;;;;32.64;25.16;100246.48;261302;1107;102943;-73
2021/06/07 08:23:20;;;;;;;3.88;2.63;;;;;;;32.33;25.31;100242.84;262450;1107;102999;-71
2021/06/07 08:28:25;;;;;;;4.15;2.18;;;;;;;32.13;25.42;100238.50;262280;1107;101137;-72
2021/06/07 08:33:31;;;;;;;2.43;2.30;;;;;;;31.73;24.79;100248.04;262610;1107;100948;-72
2021/06/07 08:38:36;;;;;;;4.70;2.78;;;;;;;31.61;25.89;100244.59;262101;1106;102230;-72
2021/06/07 08:43:39;;;;;;;10.93;3.00;;;;;;;31.53;25.64;100249.16;261857;1103;103040;-71
2021/06/07 08:48:58;;;;;;;3.35;2.98;;;;;;;31.14;25.81;100248.38;260544;1107;103043;-76
2021/06/07 08:54:02;;;;;;;3.48;3.13;;;;;;;30.88;26.25;100231.64;261780;1107;102963;-80
2021/06/07 08:59:07;;;;;;;2.88;2.35;;;;;;;30.53;26.01;100234.33;260124;1107;103007;-74
2021/06/07 09:04:17;;;;;;;4.20;2.93;;;;;;;30.41;26.29;100227.76;261297;1106;103097;-75
2021/06/07 09:09:24;;;;;;;2.08;1.98;;;;;;;30.03;25.54;100231.11;260169;1102;103042;-76
2021/06/07 09:14:32;;;;;;;3.23;2.95;;;;;;;29.74;27.59;100240.52;260868;1106;103109;-73
2021/06/07 09:19:37;;;;;;;4.45;3.78;;;;;;;29.68;27.53;100227.38;261164;1107;103331;-74
2021/06/07 09:25:03;;;;;;;4.13;2.73;;;;;;;29.76;27.82;100224.48;260402;1107;102982;-75
2021/06/07 09:30:29;;;;;;;4.18;3.48;;;;;;;29.71;27.26;100227.48;260518;1107;103040;-77
2021/06/07 09:35:35;;;;;;;5.20;2.63;;;;;;;29.49;27.41;100228.05;260082;1107;103110;-76
2021/06/07 09:40:41;;;;;;;3.25;2.68;;;;;;;29.51;27.81;100224.95;260452;1107;103052;-77
2021/06/07 09:45:49;;;;;;;2.67;2.47;;;;;;;29.57;27.65;100226.30;260758;1107;103150;-78
2021/06/07 09:50:58;;;;;;;2.20;2.10;;;;;;;29.37;27.53;100217.06;260115;1107;103086;-77
2021/06/07 09:56:04;;;;;;;5.93;2.88;;;;;;;29.37;27.31;100217.06;260150;1107;103056;-78
2021/06/07 10:01:21;;;;;;;2.85;2.23;;;;;;;29.45;28.13;100216.95;260830;1107;103034;-77
2021/06/07 10:06:36;;;;;;;2.80;2.60;;;;;;;29.28;27.42;100219.18;261523;1107;102942;-78
2021/06/07 10:11:45;;;;;;;2.70;2.50;;;;;;;29.22;27.51;100215.08;261553;1107;103036;-78
2021/06/07 10:17:01;;;;;;;4.45;2.38;;;;;;;29.33;27.18;100206.01;261696;1107;102955;-77
2021/06/07 10:22:06;;;;;;;2.63;2.38;;;;;;;29.26;27.61;100213.23;262175;1107;102997;-77
2021/06/07 10:27:12;;;;;;;2.65;2.50;;;;;;;28.97;27.18;100215.14;262521;1107;102818;-78
2021/06/07 10:32:25;;;;;;;2.75;2.58;;;;;;;28.99;27.03;100212.85;261110;1107;102963;-78
2021/06/07 10:37:33;;;;;;;3.98;2.40;;;;;;;28.97;28.25;100204.16;261807;1107;102961;-76
2021/06/07 10:42:54;;;;;;;3.17;2.93;;;;;;;28.99;28.08;100195.59;260392;1107;103099;-76
2021/06/07 10:48:00;;;;;;;2.53;2.40;;;;;;;29.11;28.04;100201.02;260693;1103;103055;-77
2021/06/07 10:53:06;;;;;;;3.55;2.53;;;;;;;29.23;26.97;100200.20;260636;1107;103028;-78
2021/06/07 10:58:15;;;;;;;4.30;2.58;;;;;;;29.23;27.68;100194.70;260992;1107;102986;-77
2021/06/07 11:03:25;;;;;;;2.30;2.10;;;;;;;29.18;27.27;100184.77;260792;1107;102966;-75
2021/06/07 11:08:37;;;;;;;2.10;2.00;;;;;;;29.22;26.91;100182.13;260781;1107;102933;-76
2021/06/07 11:14:02;;;;;;;6.60;2.40;;;;;;;29.00;26.36;100183.46;260741;1107;102998;-77
2021/06/07 11:19:08;;;;;;;1.60;1.50;;;;;;;28.64;26.26;100192.52;260251;1103;103132;-77
2021/06/07 11:24:31;;;;;;;2.03;1.93;;;;;;;28.57;26.72;100178.58;260419;1106;103078;-77
2021/06/07 11:30:08;;;;;;;2.18;2.05;;;;;;;28.64;27.52;100182.35;261007;1107;102953;-77
2021/06/07 11:35:41;;;;;;;4.13;2.85;;;;;;;28.85;28.06;100176.73;260131;1107;103070;-77
2021/06/07 11:40:46;;;;;;;4.15;2.48;;;;;;;28.86;27.21;100175.59;260210;1107;103188;-78
2021/06/07 11:45:52;;;;;;;5.33;2.60;;;;;;;28.80;27.27;100171.45;259922;1107;103195;-78
2021/06/07 11:51:31;;;;;;;2.68;2.20;;;;;;;28.63;26.59;100167.03;260490;1107;103146;-77
2021/06/07 11:56:37;;;;;;;6.33;2.23;;;;;;;28.48;26.52;100160.30;260083;1101;103033;-77
2021/06/07 12:01:41;;;;;;;3.35;1.88;;;;;;;28.44;25.80;100162.13;261442;1107;103017;-77
2021/06/07 12:06:45;;;;;;;3.23;2.25;;;;;;;28.58;26.55;100160.98;260156;1107;103091;-75
2021/06/07 12:11:49;;;;;;;7.43;2.75;;;;;;;28.79;26.57;100154.19;260919;1107;103010;-77
2021/06/07 12:17:02;;;;;;;1.78;1.68;;;;;;;28.79;26.18;100153.39;261800;1101;103060;-77
2021/06/07 12:22:33;;;;;;;3.45;2.23;;;;;;;28.86;26.73;100150.89;261374;1107;102968;-78
2021/06/07 12:32:59;;;;;;;2.08;1.98;;;;;;;28.71;26.38;100141.42;262667;1107;101186;-77
2021/06/07 12:38:05;;;;;;;2.20;2.10;;;;;;;28.01;26.26;100142.69;262319;1107;103006;-78
2021/06/07 12:43:09;;;;;;;7.68;2.25;;;;;;;28.03;27.13;100126.70;262336;1107;102989;-77
2021/06/07 12:48:21;;;;;;;3.45;2.30;;;;;;;27.98;26.62;100130.47;262206;1101;103176;-77
2021/06/07 12:53:28;;;;;;;3.15;2.95;;;;;;;27.52;27.82;100125.35;261586;1107;102946;-78
2021/06/07 12:58:33;;;;;;;2.40;2.13;;;;;;;27.75;27.41;100124.63;261203;1107;102958;-77
2021/06/07 13:03:38;;;;;;;2.37;2.27;;;;;;;27.89;26.84;100123.48;259954;1107;102946;-77
2021/06/07 13:08:52;;;;;;;2.50;2.35;;;;;;;27.93;26.87;100121.67;261375;1107;103123;-77
2021/06/07 13:13:57;;;;;;;2.10;1.95;;;;;;;27.88;27.00;100121.89;260068;1107;103184;-77
2021/06/07 13:19:10;;;;;;;1.73;1.58;;;;;;;27.79;26.61;100111.05;260899;1107;103057;-78
2021/06/07 13:24:27;;;;;;;2.15;2.05;;;;;;;27.91;27.04;100118.47;260894;1106;102999;-77
2021/06/07 13:29:34;;;;;;;2.28;2.00;;;;;;;27.76;25.66;100114.47;260490;1107;102962;-78
2021/06/07 13:34:45;;;;;;;2.08;1.95;;;;;;;27.83;26.73;100115.48;260151;1107;103017;-77
2021/06/07 13:40:25;;;;;;;3.08;2.60;;;;;;;27.93;26.79;100105.23;260537;1107;103440;-77
2021/06/07 13:45:40;;;;;;;2.18;2.08;;;;;;;27.86;26.42;100094.83;260263;1107;109616;-77
2021/06/07 13:51:01;;;;;;;3.38;2.85;;;;;;;28.01;26.60;100091.42;260343;1107;103067;-77
2021/06/07 13:56:06;;;;;;;2.28;2.08;;;;;;;28.07;26.87;100087.32;260170;1103;102989;-77
2021/06/07 14:01:11;;;;;;;;;;;;;;;27.95;26.80;100081.83;260604;1102;103018;-76
2021/06/07 14:06:16;;;;;;;7.53;2.40;;;;;;;27.81;26.70;100071.22;260937;1103;103379;-75
2021/06/07 14:11:24;;;;;;;2.10;1.90;;;;;;;27.78;26.69;100077.38;261437;1107;102989;-77
2021/06/07 14:16:32;;;;;;;2.88;2.10;;;;;;;27.79;26.58;100068.02;261842;1107;101933;-76
2021/06/07 14:27:00;;;;;;;2.60;2.43;;;;;;;27.77;26.79;100064.83;261608;1107;102937;-76
2021/06/07 14:32:06;;;;;;;5.05;2.63;;;;;;;27.61;26.75;100058.41;260906;1107;102978;-76
2021/06/07 14:37:10;;;;;;;6.33;1.93;;;;;;;27.43;27.11;100051.52;262168;1107;103103;-74
2021/06/07 14:42:15;;;;;;;1.90;1.80;;;;;;;27.39;26.67;100056.86;262606;1107;101488;-78
2021/06/07 14:47:21;;;;;;;2.45;2.25;;;;;;;27.43;27.11;100046.84;261751;1107;102997;-78
2021/06/07 14:52:26;;;;;;;5.65;2.88;;;;;;;27.46;26.80;100042.63;261920;1107;103040;-75
2021/06/07 14:57:30;;;;;;;2.30;2.18;;;;;;;27.37;27.15;100042.72;261273;1107;102959;-79
2021/06/07 15:02:34;;;;;;;2.68;2.54;;;;;;;27.37;26.66;100044.66;261992;1107;102935;-77
2021/06/07 15:07:40;;;;;;;2.63;2.43;;;;;;;27.23;27.05;100052.36;260958;1107;102958;-75
2021/06/07 15:12:45;;;;;;;2.58;2.38;;;;;;;27.08;27.36;100040.13;260558;1107;102963;-78
2021/06/07 15:17:49;;;;;;;3.10;2.73;;;;;;;26.99;27.45;100031.20;260155;1107;102964;-77
2021/06/07 15:22:54;;;;;;;2.43;1.88;;;;;;;26.87;27.84;100021.01;260417;1107;103030;-74
2021/06/07 15:27:58;;;;;;;2.00;1.90;;;;;;;26.76;27.43;100015.14;260199;1107;103084;-75
2021/06/07 15:33:03;;;;;;;48.75;7.43;;;;;;;26.60;26.80;100010.64;260609;1107;103068;-74
2021/06/07 15:38:19;;;;;;;2.50;2.40;;;;;;;26.42;27.11;100013.50;260508;1107;103052;-77
2021/06/07 15:43:27;;;;;;;2.33;2.18;;;;;;;26.40;27.45;99998.56;260768;1107;103393;-78
2021/06/07 15:48:32;;;;;;;4.73;2.65;;;;;;;26.38;28.37;100006.30;260503;1107;103178;-76
2021/06/07 15:53:36;;;;;;;2.85;2.65;;;;;;;26.32;28.72;100002.16;261306;1107;103035;-78
2021/06/07 15:58:41;;;;;;;2.78;2.58;;;;;;;26.20;28.63;100002.07;260354;1107;102953;-77
2021/06/07 16:03:47;;;;;;;2.25;2.15;;;;;;;26.07;28.19;99995.72;261589;1107;102993;-77
2021/06/07 16:08:52;;;;;;;2.03;1.93;;;;;;;25.91;27.59;99989.25;262438;1107;101608;-77
2021/06/07 16:13:59;;;;;;;2.60;2.35;;;;;;;25.79;28.76;99993.48;260036;1101;103040;-74
2021/06/07 16:19:07;;;;;;;2.58;2.38;;;;;;;25.66;28.84;99988.27;261015;1107;102848;-78
2021/06/07 16:24:11;;;;;;;2.43;1.85;;;;;;;25.46;28.79;99987.03;261273;1107;102964;-77
2021/06/07 16:29:17;;;;;;;3.85;2.88;;;;;;;25.40;28.98;99977.41;262568;1107;101746;-77
2021/06/07 16:34:21;;;;;;;2.70;2.50;;;;;;;25.34;29.02;99978.75;262610;1101;101419;-78
2021/06/07 16:39:25;;;;;;;2.38;2.28;;;;;;;25.22;29.29;99973.16;262634;1107;101646;-78
2021/06/07 16:44:47;;;;;;;3.08;2.38;;;;;;;25.16;30.23;99976.06;261180;1107;102963;-77
2021/06/07 16:49:51;;;;;;;2.50;2.30;;;;;;;25.10;30.67;99971.90;261143;1107;103062;-78
2021/06/07 16:54:54;;;;;;;2.20;2.10;;;;;;;25.02;30.07;99978.20;260308;1107;103075;-71
2021/06/07 17:00:00;;;;;;;2.87;2.33;;;;;;;24.96;30.19;99981.42;261557;1107;101429;-74
2021/06/07 17:05:05;;;;;;;4.08;2.43;;;;;;;24.91;31.34;99982.36;261436;1107;103218;-74
2021/06/07 17:10:11;;;;;;;6.10;2.98;;;;;;;24.79;31.51;99971.30;260950;1106;103039;-75
2021/06/07 17:15:24;;;;;;;3.58;2.62;;;;;;;24.62;31.15;99977.59;260609;1102;103139;-75
2021/06/07 17:20:30;;;;;;;2.40;2.30;;;;;;;24.47;31.43;99976.14;261153;1107;103007;-75
2021/06/07 17:25:35;;;;;;;2.55;2.25;;;;;;;24.38;32.57;99972.64;261102;1107;102969;-76
2021/06/07 17:30:41;;;;;;;2.85;2.70;;;;;;;24.20;33.87;99970.98;260483;1107;103080;-74
2021/06/07 17:35:46;;;;;;;3.25;3.05;;;;;;;24.04;34.92;99972.58;261034;1107;102954;-76
2021/06/07 17:40:52;;;;;;;3.80;3.03;;;;;;;23.83;35.33;99975.92;260525;1102;103068;-76
2021/06/07 17:45:57;;;;;;;2.50;2.40;;;;;;;23.63;36.19;99976.48;260566;1107;103014;-74
2021/06/07 17:51:02;;;;;;;2.70;2.60;;;;;;;23.44;37.00;99981.36;260320;1107;103075;-73
2021/06/07 17:56:06;;;;;;;2.53;2.33;;;;;;;23.22;37.50;99973.27;261139;1107;102939;-75
2021/06/07 18:01:10;;;;;;;2.95;2.38;;;;;;;22.98;38.09;99977.12;261223;1107;103244;-75
2021/06/07 18:06:13;;;;;;;3.45;3.00;;;;;;;22.76;38.11;99983.35;260179;1107;103090;-76
2021/06/07 18:11:18;;;;;;;3.20;2.90;;;;;;;22.54;38.24;99991.51;260959;1107;103051;-75
2021/06/07 18:16:22;;;;;;;3.38;3.18;;;;;;;22.31;39.02;99993.41;260154;1106;103090;-75
2021/06/07 18:21:26;;;;;;;4.53;2.75;;;;;;;22.06;39.37;99989.31;261001;1103;102990;-75
2021/06/07 18:26:31;;;;;;;4.45;3.30;;;;;;;21.79;40.21;99995.55;261765;1107;102966;-75
2021/06/07 18:31:36;;;;;;;3.03;2.83;;;;;;;21.55;41.16;100000.38;261280;1107;103100;-76
2021/06/07 18:36:40;;;;;;;5.50;3.40;;;;;;;21.30;41.84;100007.09;261411;1107;103201;-75
2021/06/07 18:41:45;;;;;;;3.05;2.75;;;;;;;21.04;42.17;100014.84;262644;1107;101575;-76
2021/06/07 18:46:49;;;;;;;10.40;3.43;;;;;;;20.75;43.47;100014.25;262495;1107;101564;-75
2021/06/07 18:51:57;;;;;;;2.83;2.73;;;;;;;20.51;43.90;100011.61;261515;1107;102956;-75
2021/06/07 18:57:02;;;;;;;2.85;2.73;;;;;;;20.28;45.35;100024.09;260836;1107;102971;-74
2021/06/07 19:02:08;;;;;;;4.18;3.88;;;;;;;20.03;46.00;100024.44;260022;1107;103013;-75
2021/06/07 19:07:14;;;;;;;3.30;3.00;;;;;;;19.75;47.12;100035.05;260258;1107;103099;-75
2021/06/07 19:12:21;;;;;;;3.15;2.90;;;;;;;19.37;48.17;100039.47;260563;1100;102968;-75
2021/06/07 19:17:26;;;;;;;4.58;2.92;;;;;;;18.98;48.51;100033.33;260227;1107;103069;-74
2021/06/07 19:22:33;;;;;;;3.48;3.20;;;;;;;18.57;49.22;100040.91;260479;1107;103058;-75
2021/06/07 19:27:40;;;;;;;5.03;3.28;;;;;;;18.17;49.79;100050.84;261417;1107;103006;-75
2021/06/07 19:32:50;;;;;;;4.30;3.35;;;;;;;17.87;50.67;100056.36;260245;1107;103215;-77
2021/06/07 19:37:56;;;;;;;3.85;3.35;;;;;;;17.73;51.10;100046.14;261898;1107;102862;-72
2021/06/07 19:43:02;;;;;;;8.85;3.10;;;;;;;17.57;51.62;100052.63;260787;1102;102959;-72
2021/06/07 19:48:08;;;;;;;4.18;3.55;;;;;;;17.27;51.31;100058.06;260559;1107;103422;-70
2021/06/07 19:53:14;;;;;;;3.58;3.25;;;;;;;16.94;52.34;100054.84;260824;1107;103326;-73
2021/06/07 19:58:19;;;;;;;4.13;3.93;;;;;;;16.75;52.80;100056.45;261004;1107;103130;-73
2021/06/07 20:03:27;;;;;;;4.60;3.93;;;;;;;16.59;52.98;100062.83;260376;1107;103075;-69
2021/06/07 20:08:31;;;;;;;4.20;3.90;;;;;;;16.35;53.31;100063.32;260556;1107;104180;-69
2021/06/07 20:13:37;;;;;;;4.18;3.88;;;;;;;16.10;53.67;100060.55;260882;1107;102990;-69
2021/06/07 20:18:42;;;;;;;4.30;4.00;;;;;;;15.92;54.36;100058.30;260083;1108;103788;-72
2021/06/07 20:23:47;;;;;;;4.18;3.85;;;;;;;15.77;55.02;100062.55;261988;1107;102225;-68
2021/06/07 20:28:52;;;;;;;4.53;4.13;;;;;;;15.75;55.50;100063.88;262037;1107;103217;-70
2021/06/07 20:33:59;;;;;;;4.80;4.40;;;;;;;15.71;56.50;100063.58;262129;1107;102887;-71
2021/06/07 20:39:04;;;;;;;4.23;3.83;;;;;;;15.62;56.69;100065.13;262633;1107;103064;-73
2021/06/07 20:44:10;;;;;;;5.13;4.63;;;;;;;15.53;56.83;100072.05;262319;1107;102968;-70
2021/06/07 20:49:16;;;;;;;5.15;4.30;;;;;;;15.51;56.67;100068.81;262567;1107;101155;-73
2021/06/07 20:54:21;;;;;;;5.30;4.65;;;;;;;15.41;56.80;100069.55;262600;1107;102278;-74
2021/06/07 20:59:26;;;;;;;4.50;4.10;;;;;;;15.32;57.40;100071.08;262126;1107;103249;-71
2021/06/07 21:04:32;;;;;;;;;;;;;;;15.10;57.28;100073.88;261550;1107;103072;-71
2021/06/07 21:09:37;;;;;;;3.95;3.55;;;;;;;14.87;57.68;100074.21;260840;1107;103969;-72
2021/06/07 21:14:41;;;;;;;7.60;4.85;;;;;;;14.68;58.79;100068.38;260327;1107;103213;-70
2021/06/07 21:19:46;;;;;;;4.90;4.48;;;;;;;14.48;58.56;100071.67;261648;1107;103109;-71
2021/06/07 21:24:53;;;;;;;4.78;4.38;;;;;;;14.37;59.49;100069.90;260881;1107;103048;-73
2021/06/07 21:29:58;;;;;;;4.80;4.45;;;;;;;14.31;59.42;100083.52;261165;1107;102968;-69
2021/06/07 21:35:05;;;;;;;11.60;4.33;;;;;;;14.13;59.82;100074.72;261228;1107;102942;-71
2021/06/07 21:40:13;;;;;;;6.08;5.58;;;;;;;13.97;60.04;100080.16;260739;1107;103014;-73
2021/06/07 21:45:19;;;;;;;7.58;6.30;;;;;;;13.90;60.56;100087.56;260639;1107;103017;-71
2021/06/07 21:50:24;;;;;;;8.75;6.05;;;;;;;14.02;61.30;100085.59;260804;1107;102963;-72
2021/06/07 21:55:30;;;;;;;;;;;;;;;14.02;61.67;100104.34;260860;1107;102975;-72
2021/06/07 22:00:35;;;;;;;10.58;7.33;;;;;;;14.02;62.38;100109.71;260742;1102;103042;-72
2021/06/07 22:05:40;;;;;;;12.70;7.25;;;;;;;13.98;62.30;100097.86;261529;1107;102956;-70
2021/06/07 22:10:45;;;;;;;14.13;6.68;;;;;;;13.95;62.36;100103.71;261032;1107;102996;-72
2021/06/07 22:15:50;;;;;;;12.35;7.25;;;;;;;13.92;62.37;100093.48;262089;1107;103042;-72
2021/06/07 22:20:55;;;;;;;10.58;7.30;;;;;;;13.89;62.59;100102.83;261465;1107;102938;-73
2021/06/07 22:26:00;;;;;;;8.90;7.90;;;;;;;13.75;62.76;100113.10;260978;1107;103375;-71
2021/06/07 22:31:06;;;;;;;7.88;6.03;;;;;;;13.68;62.58;100103.61;262165;1103;102963;-71
2021/06/07 22:36:12;;;;;;;7.50;6.33;;;;;;;13.52;62.85;100099.88;262635;1107;102744;-72
2021/06/07 22:41:19;;;;;;;10.43;8.00;;;;;;;13.38;63.40;100099.42;262485;1107;102531;-73
2021/06/07 22:46:23;;;;;;;13.65;7.53;;;;;;;13.42;63.88;100105.09;262172;1107;102933;-72
2021/06/07 22:51:28;;;;;;;10.65;8.63;;;;;;;13.53;63.80;100106.05;261986;1107;103360;-72
2021/06/07 22:56:33;;;;;;;7.08;6.38;;;;;;;13.46;63.88;100104.34;260965;1106;103062;-71
2021/06/07 23:01:38;;;;;;;10.57;6.50;;;;;;;13.30;64.04;100107.03;260157;1107;102960;-71
2021/06/07 23:06:44;;;;;;;6.10;5.60;;;;;;;13.11;64.29;100101.09;261515;1106;102942;-74
2021/06/07 23:11:51;;;;;;;7.33;5.93;;;;;;;12.90;63.91;100091.88;260937;1107;103099;-70
2021/06/07 23:16:56;;;;;;;8.85;6.53;;;;;;;12.94;65.11;100092.20;261134;1107;102959;-71
2021/06/07 23:22:01;;;;;;;23.30;8.47;;;;;;;13.04;65.24;100082.50;260815;1102;103791;-70
2021/06/07 23:27:07;;;;;;;10.65;6.95;;;;;;;13.08;65.57;100093.54;261003;1107;103036;-70